Time;durP1;ratioP1;P1;durP2;ratioP2;P2;SDS_P1;SDS_P2;PMS_P1;PMS_P2;Temp;Humidity;BMP_temperature;BMP_pressure;BME280_temperature;BME280_humidity;BME280_pressure;Samples;Min_cycle;Max_cycle;Signal;HPM_P1;HPM_P2
2023/08/03 00:00:22;;;;;;;0.32;0.32;;;17.80;99.90;;;;;;4393560;32;20118;-76
2023/08/03 00:02:48;;;;;;;0.30;0.30;;;17.70;99.90;;;;;;4393016;32;20066;-75
2023/08/03 00:05:17;;;;;;;0.30;0.30;;;17.70;99.90;;;;;;4373740;32;20592;-77
2023/08/03 00:07:43;;;;;;;0.30;0.30;;;17.70;99.90;;;;;;4378025;32;20068;-76
2023/08/03 00:10:09;;;;;;;0.30;0.30;;;17.70;99.90;;;;;;4373238;32;20083;-76
2023/08/03 00:12:34;;;;;;;0.30;0.30;;;17.70;99.90;;;;;;4374840;32;20121;-76
2023/08/03 00:15:00;;;;;;;0.40;0.40;;;17.60;99.90;;;;;;4388775;32;20059;-76
2023/08/03 00:17:25;;;;;;;0.40;0.40;;;17.60;99.90;;;;;;4389442;32;20039;-77
2023/08/03 00:19:51;;;;;;;0.30;0.30;;;17.50;99.90;;;;;;4387899;32;20086;-78
2023/08/03 00:22:16;;;;;;;0.50;0.50;;;17.50;99.90;;;;;;4391765;32;20070;-77
2023/08/03 00:24:42;;;;;;;0.30;0.30;;;17.40;99.90;;;;;;4391892;32;20125;-76
2023/08/03 00:27:07;;;;;;;0.30;0.30;;;17.50;99.90;;;;;;4392298;32;20064;-76
2023/08/03 00:29:33;;;;;;;0.30;0.30;;;17.40;99.90;;;;;;4382925;32;20122;-76
2023/08/03 00:32:00;;;;;;;0.40;0.40;;;17.40;99.90;;;;;;4377847;32;20070;-76
2023/08/03 00:34:26;;;;;;;0.40;0.40;;;17.30;99.90;;;;;;4391037;32;20074;-77
2023/08/03 00:36:51;;;;;;;0.45;0.45;;;17.40;99.90;;;;;;4390850;32;20079;-77
2023/08/03 00:39:17;;;;;;;8.68;0.40;;;17.40;99.90;;;;;;4392528;32;20083;-77
2023/08/03 00:41:42;;;;;;;0.68;0.68;;;17.30;99.90;;;;;;4394973;32;20118;-76
2023/08/03 00:44:08;;;;;;;0.43;0.40;;;17.30;99.90;;;;;;4396802;32;20133;-76
2023/08/03 00:46:33;;;;;;;0.30;0.30;;;17.30;99.90;;;;;;4394911;32;20515;-75
2023/08/03 00:48:59;;;;;;;0.30;0.30;;;17.30;99.90;;;;;;4395898;32;20114;-77
2023/08/03 00:51:25;;;;;;;0.25;0.25;;;17.30;99.90;;;;;;4390826;32;20066;-75
2023/08/03 00:53:51;;;;;;;6.30;0.98;;;17.30;99.90;;;;;;4388234;32;20494;-75
2023/08/03 00:56:16;;;;;;;0.30;0.30;;;17.30;99.90;;;;;;4394123;32;20038;-77
2023/08/03 00:58:42;;;;;;;0.80;0.45;;;17.30;99.90;;;;;;4393350;32;20062;-77
2023/08/03 01:01:07;;;;;;;0.20;0.20;;;17.30;99.90;;;;;;4389856;32;20129;-75
2023/08/03 01:03:33;;;;;;;0.30;0.30;;;17.30;99.90;;;;;;4391250;32;20136;-76
2023/08/03 01:05:59;;;;;;;0.30;0.30;;;17.40;99.90;;;;;;4394063;32;20125;-77
2023/08/03 01:08:25;;;;;;;0.75;0.57;;;17.40;99.90;;;;;;4395558;32;20095;-77
2023/08/03 01:10:52;;;;;;;0.40;0.40;;;17.40;99.90;;;;;;4394330;32;20056;-76
2023/08/03 01:13:18;;;;;;;0.57;0.57;;;17.40;99.90;;;;;;4396247;32;20104;-77
2023/08/03 01:15:44;;;;;;;0.30;0.30;;;17.40;99.90;;;;;;4395275;32;20074;-76
2023/08/03 01:18:09;;;;;;;0.40;0.40;;;17.40;99.90;;;;;;4390924;32;20087;-76
2023/08/03 01:20:37;;;;;;;0.45;0.45;;;17.40;99.90;;;;;;4396527;32;20065;-76
2023/08/03 01:23:04;;;;;;;0.30;0.30;;;17.30;99.90;;;;;;4393730;32;20078;-76
2023/08/03 01:25:32;;;;;;;2.40;0.77;;;17.30;99.90;;;;;;4394523;32;20062;-76
2023/08/03 01:27:57;;;;;;;1.02;0.77;;;17.30;99.90;;;;;;4397348;32;20078;-78
2023/08/03 01:30:23;;;;;;;0.28;0.28;;;17.40;99.90;;;;;;4398092;32;20054;-77
2023/08/03 01:32:49;;;;;;;0.30;0.30;;;17.40;99.90;;;;;;4397323;32;20088;-76
2023/08/03 01:35:15;;;;;;;0.30;0.30;;;17.40;99.90;;;;;;4396515;32;20055;-76
2023/08/03 01:37:40;;;;;;;1.65;1.15;;;17.30;99.90;;;;;;4390788;32;20067;-75
2023/08/03 01:40:06;;;;;;;0.50;0.50;;;17.20;99.90;;;;;;4383991;32;20118;-76
2023/08/03 01:42:32;;;;;;;0.32;0.32;;;17.30;99.90;;;;;;4394739;32;20547;-77
2023/08/03 01:44:58;;;;;;;0.30;0.30;;;17.20;99.90;;;;;;4385501;32;20091;-76
2023/08/03 01:47:23;;;;;;;0.30;0.30;;;17.10;99.90;;;;;;4393387;32;20124;-77
2023/08/03 01:49:49;;;;;;;0.32;0.32;;;17.10;99.90;;;;;;4389333;32;20136;-77
2023/08/03 01:52:14;;;;;;;0.40;0.40;;;17.10;99.90;;;;;;4387575;32;20082;-76
2023/08/03 01:54:40;;;;;;;0.30;0.30;;;17.10;99.90;;;;;;4391629;32;20126;-75
2023/08/03 01:57:05;;;;;;;0.28;0.28;;;17.00;99.90;;;;;;4388462;32;20295;-76
2023/08/03 01:59:31;;;;;;;0.20;0.20;;;17.10;99.90;;;;;;4385613;32;20094;-76
2023/08/03 02:01:57;;;;;;;0.30;0.30;;;17.10;99.90;;;;;;4387027;32;20081;-76
2023/08/03 02:04:22;;;;;;;0.35;0.35;;;17.20;99.90;;;;;;4392010;32;20387;-77
2023/08/03 02:06:49;;;;;;;0.30;0.30;;;17.20;99.90;;;;;;4384237;32;20075;-77
2023/08/03 02:09:14;;;;;;;0.30;0.30;;;17.20;99.90;;;;;;4375807;32;20063;-77
2023/08/03 02:11:40;;;;;;;0.50;0.50;;;17.00;99.90;;;;;;4384709;32;20085;-78
2023/08/03 02:14:05;;;;;;;0.30;0.30;;;17.10;99.90;;;;;;4379368;32;20074;-78
2023/08/03 02:16:32;;;;;;;0.25;0.25;;;17.10;99.90;;;;;;4387082;32;20518;-77
2023/08/03 02:18:57;;;;;;;0.80;0.65;;;17.10;99.90;;;;;;4383327;32;20065;-77
2023/08/03 02:21:23;;;;;;;1.55;0.57;;;17.10;99.90;;;;;;4385603;32;20177;-76
2023/08/03 02:23:48;;;;;;;0.40;0.40;;;17.10;99.90;;;;;;4386758;32;20062;-78
2023/08/03 02:26:14;;;;;;;0.40;0.40;;;17.20;99.90;;;;;;4385513;32;20074;-76
2023/08/03 02:28:40;;;;;;;0.30;0.30;;;17.20;99.90;;;;;;4388185;32;20083;-78
2023/08/03 02:31:05;;;;;;;1.45;0.40;;;17.20;99.90;;;;;;4387772;32;20676;-76
2023/08/03 02:33:31;;;;;;;0.30;0.30;;;17.20;99.90;;;;;;4393139;32;20166;-78
2023/08/03 02:35:56;;;;;;;0.30;0.30;;;17.20;99.90;;;;;;4391334;32;20067;-77
2023/08/03 02:38:21;;;;;;;0.35;0.35;;;17.10;99.90;;;;;;4395576;32;20106;-77
2023/08/03 02:40:47;;;;;;;1.65;0.57;;;17.10;99.90;;;;;;4398236;32;20053;-77
2023/08/03 02:43:12;;;;;;;0.50;0.50;;;17.10;99.90;;;;;;4391547;32;20100;-76
2023/08/03 02:45:38;;;;;;;3.22;1.17;;;17.10;99.90;;;;;;4394600;32;20067;-76
2023/08/03 02:48:04;;;;;;;0.37;0.37;;;17.10;99.90;;;;;;4399180;32;20066;-77
2023/08/03 02:50:29;;;;;;;0.40;0.40;;;17.10;99.90;;;;;;4399079;32;20063;-76
2023/08/03 02:52:54;;;;;;;0.30;0.30;;;17.20;99.90;;;;;;4399239;32;20083;-76
2023/08/03 02:55:20;;;;;;;0.50;0.50;;;17.10;99.90;;;;;;4395072;32;20116;-77
2023/08/03 02:57:45;;;;;;;8.98;0.50;;;17.10;99.90;;;;;;4388534;32;20059;-77
2023/08/03 03:00:11;;;;;;;0.20;0.20;;;17.10;99.90;;;;;;4396401;32;20594;-77
2023/08/03 03:02:37;;;;;;;0.30;0.30;;;17.10;99.90;;;;;;4398526;32;20078;-76
2023/08/03 03:05:03;;;;;;;0.30;0.30;;;17.10;99.90;;;;;;4399501;32;20070;-77
2023/08/03 03:07:31;;;;;;;0.30;0.30;;;17.20;99.90;;;;;;4397671;32;20129;-76
2023/08/03 03:09:57;;;;;;;0.30;0.30;;;17.20;99.90;;;;;;4393450;32;20066;-76
2023/08/03 03:12:22;;;;;;;0.30;0.30;;;17.10;99.90;;;;;;4396732;32;20074;-77
2023/08/03 03:14:48;;;;;;;0.30;0.30;;;17.00;99.90;;;;;;4398488;32;20091;-77
2023/08/03 03:17:14;;;;;;;8.57;0.50;;;17.10;99.90;;;;;;4421750;27;20148;-67
2023/08/03 03:19:40;;;;;;;0.40;0.40;;;17.10;99.90;;;;;;4438117;32;20070;-65
2023/08/03 03:22:06;;;;;;;0.40;0.40;;;17.00;99.90;;;;;;4428914;32;20065;-66
2023/08/03 03:24:31;;;;;;;0.50;0.50;;;17.00;99.90;;;;;;4428465;32;20057;-67
2023/08/03 03:26:57;;;;;;;0.28;0.28;;;17.00;99.90;;;;;;4429390;32;20116;-66
2023/08/03 03:29:22;;;;;;;0.40;0.40;;;17.10;99.90;;;;;;4433449;32;20115;-66
2023/08/03 03:31:47;;;;;;;0.30;0.30;;;17.10;99.90;;;;;;4441291;32;20592;-66
2023/08/03 03:34:13;;;;;;;0.30;0.30;;;17.10;99.90;;;;;;4428942;32;20082;-67
2023/08/03 03:36:38;;;;;;;1.75;1.02;;;17.10;99.90;;;;;;4428883;32;20541;-66
2023/08/03 03:39:04;;;;;;;0.30;0.30;;;17.10;99.90;;;;;;4428669;32;20123;-66
2023/08/03 03:41:29;;;;;;;0.22;0.22;;;17.10;99.90;;;;;;4428058;32;20069;-66
2023/08/03 03:43:55;;;;;;;0.80;0.50;;;17.20;99.90;;;;;;4428029;32;20458;-66
2023/08/03 03:46:20;;;;;;;0.88;0.88;;;17.20;99.90;;;;;;4440707;32;20077;-66
2023/08/03 03:48:46;;;;;;;0.28;0.28;;;17.10;99.90;;;;;;4444226;32;20080;-66
2023/08/03 03:51:11;;;;;;;0.30;0.30;;;17.10;99.90;;;;;;4444660;32;20124;-67
2023/08/03 03:53:37;;;;;;;0.70;0.70;;;17.10;99.90;;;;;;4444494;32;20414;-66
2023/08/03 03:56:03;;;;;;;0.30;0.30;;;17.10;99.90;;;;;;4445076;32;20076;-67
2023/08/03 03:58:28;;;;;;;0.45;0.40;;;17.10;99.90;;;;;;4431444;32;20053;-66
2023/08/03 04:00:54;;;;;;;0.30;0.30;;;17.10;99.90;;;;;;4429312;32;20101;-66
2023/08/03 04:03:19;;;;;;;0.98;0.68;;;17.20;99.90;;;;;;4428266;32;20126;-66
2023/08/03 04:05:44;;;;;;;0.40;0.40;;;17.20;99.90;;;;;;4428636;32;20525;-66
2023/08/03 04:08:10;;;;;;;0.30;0.30;;;17.30;99.90;;;;;;4436986;32;20078;-66
2023/08/03 04:10:36;;;;;;;0.70;0.70;;;17.20;99.90;;;;;;4444633;32;20069;-65
2023/08/03 04:13:01;;;;;;;0.35;0.35;;;17.20;99.90;;;;;;4443549;32;20074;-67
2023/08/03 04:15:27;;;;;;;0.80;0.65;;;17.20;99.90;;;;;;4444652;32;20469;-66
2023/08/03 04:17:52;;;;;;;0.40;0.40;;;17.20;99.90;;;;;;4443233;32;20476;-66
2023/08/03 04:20:18;;;;;;;2.42;0.73;;;17.20;99.90;;;;;;4444050;32;20521;-66
2023/08/03 04:22:43;;;;;;;0.30;0.30;;;17.30;99.90;;;;;;4446770;32;20061;-66
2023/08/03 04:25:09;;;;;;;0.55;0.35;;;17.30;99.90;;;;;;4438357;32;20077;-63
2023/08/03 04:27:35;;;;;;;0.75;0.55;;;17.30;99.90;;;;;;4443347;32;20057;-62
2023/08/03 04:30:01;;;;;;;0.30;0.30;;;17.40;99.90;;;;;;4453907;32;20188;-62
2023/08/03 04:32:27;;;;;;;0.25;0.25;;;17.50;99.90;;;;;;4453902;32;20065;-64
2023/08/03 04:34:52;;;;;;;0.57;0.52;;;17.50;99.90;;;;;;4443645;32;20081;-63
2023/08/03 04:37:18;;;;;;;1.65;0.40;;;17.50;99.90;;;;;;4443036;32;20061;-62
2023/08/03 04:39:43;;;;;;;0.40;0.40;;;17.50;99.90;;;;;;4442260;32;20088;-62
2023/08/03 04:42:09;;;;;;;0.50;0.50;;;17.50;99.90;;;;;;4440041;32;20065;-62
2023/08/03 04:44:34;;;;;;;0.52;0.52;;;17.50;99.90;;;;;;4438266;32;20081;-63
2023/08/03 04:46:59;;;;;;;0.22;0.22;;;17.50;99.90;;;;;;4452046;32;20069;-63
2023/08/03 04:49:25;;;;;;;0.30;0.30;;;17.50;99.90;;;;;;4443864;32;20089;-63
2023/08/03 04:51:52;;;;;;;0.43;0.43;;;17.60;99.90;;;;;;4450037;32;20078;-63
2023/08/03 04:54:18;;;;;;;0.30;0.30;;;17.60;99.90;;;;;;4454400;32;20084;-62
2023/08/03 04:56:44;;;;;;;0.20;0.20;;;17.70;99.90;;;;;;4453217;32;20073;-63
2023/08/03 04:59:09;;;;;;;6.87;0.52;;;17.70;99.90;;;;;;4444793;32;20062;-61
2023/08/03 05:01:35;;;;;;;0.40;0.40;;;17.70;99.90;;;;;;4450215;32;20069;-61
2023/08/03 05:04:00;;;;;;;1.00;0.73;;;17.70;99.90;;;;;;4455296;32;20061;-61
2023/08/03 05:06:27;;;;;;;0.40;0.40;;;17.80;99.90;;;;;;4454462;32;20092;-61
2023/08/03 05:08:52;;;;;;;0.40;0.40;;;17.90;99.90;;;;;;4451357;32;20517;-61
2023/08/03 05:11:18;;;;;;;0.30;0.30;;;17.90;99.90;;;;;;4441991;32;20206;-63
2023/08/03 05:13:43;;;;;;;0.40;0.40;;;17.90;99.90;;;;;;4452060;32;20082;-62
2023/08/03 05:16:09;;;;;;;0.30;0.30;;;17.90;99.90;;;;;;4440247;32;20097;-62
2023/08/03 05:18:34;;;;;;;0.40;0.40;;;17.90;99.90;;;;;;4438808;32;20120;-62
2023/08/03 05:21:00;;;;;;;0.80;0.40;;;17.90;99.90;;;;;;4442281;32;20065;-62
2023/08/03 05:23:25;;;;;;;0.77;0.77;;;18.00;99.90;;;;;;4455324;32;20065;-62
2023/08/03 05:25:55;;;;;;;0.40;0.40;;;18.00;99.90;;;;;;4444837;32;20077;-63
2023/08/03 05:28:22;;;;;;;0.40;0.40;;;18.00;99.90;;;;;;4455890;32;20121;-61
2023/08/03 05:30:47;;;;;;;1.00;0.50;;;18.00;99.90;;;;;;4454665;32;20154;-61
2023/08/03 05:33:13;;;;;;;1.02;0.93;;;18.10;99.90;;;;;;4440460;32;20086;-61
2023/08/03 05:35:38;;;;;;;0.47;0.47;;;18.20;99.90;;;;;;4453012;32;20052;-62
2023/08/03 05:38:04;;;;;;;1.95;0.40;;;18.30;99.90;;;;;;4469306;32;20084;-60
2023/08/03 05:40:29;;;;;;;0.40;0.40;;;18.40;99.90;;;;;;4464270;32;20058;-61
2023/08/03 05:42:55;;;;;;;0.45;0.45;;;18.40;99.90;;;;;;4449331;32;20132;-62
2023/08/03 05:45:42;;;;;;;0.30;0.30;;;18.50;99.90;;;;;;4446084;32;20598;-61
2023/08/03 05:48:16;;;;;;;0.40;0.40;;;18.50;99.90;;;;;;4453432;32;20116;-62
2023/08/03 05:50:46;;;;;;;0.52;0.45;;;18.50;99.90;;;;;;4439177;32;20075;-64
2023/08/03 05:53:12;;;;;;;0.77;0.77;;;18.40;99.90;;;;;;4440121;32;20110;-61
2023/08/03 05:55:38;;;;;;;1.67;1.33;;;18.50;99.90;;;;;;4450613;32;20119;-62
2023/08/03 05:58:05;;;;;;;0.30;0.30;;;18.50;99.90;;;;;;4454557;32;20081;-61
2023/08/03 06:00:30;;;;;;;0.40;0.40;;;18.60;99.90;;;;;;4454921;32;20081;-60
2023/08/03 06:02:57;;;;;;;1.65;0.62;;;18.60;99.90;;;;;;4454894;32;20085;-63
2023/08/03 06:05:43;;;;;;;19.95;0.93;;;18.70;99.90;;;;;;4455898;32;20107;-62
2023/08/03 06:08:15;;;;;;;3.85;1.00;;;18.80;99.90;;;;;;4438772;32;20119;-61
2023/08/03 06:10:41;;;;;;;1.80;0.95;;;18.90;99.90;;;;;;4439924;32;20536;-60
2023/08/03 06:13:12;;;;;;;0.45;0.45;;;18.90;99.90;;;;;;4441634;32;20529;-63
2023/08/03 06:15:38;;;;;;;0.30;0.30;;;19.00;99.90;;;;;;4451031;32;20069;-61
2023/08/03 06:18:12;;;;;;;0.50;0.50;;;19.00;99.90;;;;;;4456183;32;20069;-62
2023/08/03 06:20:41;;;;;;;1.55;0.73;;;19.10;99.90;;;;;;4455479;32;20485;-61
2023/08/03 06:23:12;;;;;;;0.30;0.30;;;19.20;99.90;;;;;;4452036;32;20069;-62
2023/08/03 06:25:37;;;;;;;0.30;0.30;;;19.20;99.90;;;;;;4447687;32;20054;-62
2023/08/03 06:28:04;;;;;;;0.40;0.40;;;19.20;99.90;;;;;;4453425;32;20062;-63
2023/08/03 06:30:30;;;;;;;0.28;0.28;;;19.30;99.90;;;;;;4492120;27;20142;-75
2023/08/03 06:32:56;;;;;;;0.30;0.30;;;19.40;99.90;;;;;;4445524;32;20102;-75
2023/08/03 06:35:25;;;;;;;1.45;0.60;;;19.50;99.90;;;;;;4445642;32;20069;-75
2023/08/03 06:37:53;;;;;;;0.62;0.62;;;19.60;99.90;;;;;;4445467;32;20528;-75
2023/08/03 06:40:19;;;;;;;1.37;0.60;;;19.60;99.90;;;;;;4445902;32;20551;-75
2023/08/03 06:42:44;;;;;;;0.30;0.30;;;19.60;99.90;;;;;;4447098;32;20104;-76
2023/08/03 06:45:10;;;;;;;0.47;0.47;;;19.60;99.90;;;;;;4445733;32;20507;-75
2023/08/03 06:47:36;;;;;;;2.22;0.80;;;19.70;99.90;;;;;;4446169;32;20115;-74
2023/08/03 06:50:03;;;;;;;0.40;0.40;;;19.70;99.90;;;;;;4446009;32;20068;-75
2023/08/03 06:52:29;;;;;;;0.30;0.30;;;19.80;99.90;;;;;;4445386;32;20060;-75
2023/08/03 06:54:55;;;;;;;0.32;0.32;;;20.00;99.90;;;;;;4448264;32;20509;-75
2023/08/03 06:57:20;;;;;;;0.30;0.30;;;20.00;99.90;;;;;;4432903;32;20061;-75
2023/08/03 06:59:46;;;;;;;0.22;0.22;;;20.10;99.90;;;;;;4442837;32;20068;-74
2023/08/03 07:02:11;;;;;;;8.27;0.37;;;20.10;99.90;;;;;;4446043;32;20053;-75
2023/08/03 07:04:36;;;;;;;0.30;0.30;;;20.10;99.90;;;;;;4446873;32;20061;-75
2023/08/03 07:07:02;;;;;;;0.50;0.50;;;20.10;99.90;;;;;;4433069;32;20062;-75
2023/08/03 07:09:27;;;;;;;1.85;0.82;;;20.00;99.90;;;;;;4430098;32;20121;-75
2023/08/03 07:11:53;;;;;;;0.20;0.20;;;20.00;99.90;;;;;;4431040;32;20066;-75
2023/08/03 07:14:18;;;;;;;0.40;0.40;;;20.00;99.90;;;;;;4430328;32;20773;-76
2023/08/03 07:16:44;;;;;;;2.40;0.57;;;20.00;99.90;;;;;;4429953;32;20073;-74
2023/08/03 07:19:12;;;;;;;0.20;0.20;;;20.10;99.90;;;;;;4430167;32;20077;-75
2023/08/03 07:21:38;;;;;;;0.40;0.40;;;20.00;99.90;;;;;;4430725;32;20062;-75
2023/08/03 07:24:04;;;;;;;0.40;0.40;;;20.10;99.90;;;;;;4430988;32;20585;-75
2023/08/03 07:26:29;;;;;;;0.30;0.30;;;20.10;99.90;;;;;;4431547;32;20127;-75
2023/08/03 07:28:55;;;;;;;0.50;0.50;;;20.10;99.90;;;;;;4423046;32;20078;-75
2023/08/03 07:31:20;;;;;;;0.20;0.20;;;20.10;99.90;;;;;;4429115;32;20451;-75
2023/08/03 07:33:45;;;;;;;0.20;0.20;;;20.20;99.90;;;;;;4437989;32;20119;-75
2023/08/03 07:36:18;;;;;;;0.75;0.37;;;20.20;99.90;;;;;;4445377;32;20061;-75
2023/08/03 07:38:44;;;;;;;0.30;0.30;;;20.30;99.90;;;;;;4421857;32;20077;-76
2023/08/03 07:41:09;;;;;;;0.50;0.50;;;20.40;99.90;;;;;;4430090;32;20307;-76
2023/08/03 07:43:35;;;;;;;4.18;1.30;;;20.40;99.90;;;;;;4429584;32;20249;-75
2023/08/03 07:46:02;;;;;;;3.08;0.95;;;20.50;99.90;;;;;;4429482;32;20119;-75
2023/08/03 07:48:27;;;;;;;0.35;0.35;;;20.60;99.90;;;;;;4418490;32;20065;-76
2023/08/03 07:50:53;;;;;;;0.30;0.30;;;20.60;99.90;;;;;;4413697;32;20617;-75
2023/08/03 07:53:18;;;;;;;9.35;0.65;;;20.70;99.90;;;;;;4413086;32;20065;-74
2023/08/03 07:55:44;;;;;;;0.25;0.25;;;20.70;99.90;;;;;;4419261;32;20053;-75
2023/08/03 07:58:11;;;;;;;0.80;0.80;;;20.80;99.90;;;;;;4429979;32;20081;-74
2023/08/03 08:00:37;;;;;;;0.20;0.20;;;20.90;99.90;;;;;;4429898;32;20079;-74
2023/08/03 08:03:03;;;;;;;0.28;0.28;;;20.90;99.90;;;;;;4429163;32;20069;-74
2023/08/03 08:05:28;;;;;;;2.10;0.62;;;20.90;99.90;;;;;;4429839;32;20086;-74
2023/08/03 08:07:54;;;;;;;1.12;0.77;;;20.90;99.90;;;;;;4426923;32;20131;-75
2023/08/03 08:10:19;;;;;;;0.30;0.30;;;20.90;99.90;;;;;;4445097;32;20073;-75
2023/08/03 08:12:45;;;;;;;0.20;0.20;;;20.90;99.90;;;;;;4429406;32;20552;-74
2023/08/03 08:15:10;;;;;;;0.10;0.10;;;21.10;99.90;;;;;;4424754;32;20085;-74
2023/08/03 08:17:36;;;;;;;0.25;0.25;;;21.10;99.90;;;;;;4425249;32;20060;-74
2023/08/03 08:20:02;;;;;;;0.20;0.20;;;21.10;99.90;;;;;;4413798;32;20058;-75
2023/08/03 08:22:27;;;;;;;0.20;0.20;;;21.10;99.90;;;;;;4414726;32;20065;-74
2023/08/03 08:24:53;;;;;;;0.20;0.20;;;21.10;99.90;;;;;;4414138;32;20124;-74
2023/08/03 08:27:19;;;;;;;0.50;0.50;;;21.10;99.90;;;;;;4415570;32;20069;-74
2023/08/03 08:29:45;;;;;;;0.10;0.10;;;21.20;99.90;;;;;;4427947;32;20115;-75
2023/08/03 08:32:11;;;;;;;0.10;0.10;;;21.30;99.90;;;;;;4445295;32;20426;-73
2023/08/03 08:34:36;;;;;;;0.10;0.10;;;21.40;99.90;;;;;;4445200;32;20119;-75
2023/08/03 08:37:02;;;;;;;0.10;0.10;;;21.40;99.90;;;;;;4439993;32;20105;-74
2023/08/03 08:39:29;;;;;;;0.20;0.20;;;21.50;99.90;;;;;;4414187;32;20066;-74
2023/08/03 08:41:55;;;;;;;0.10;0.10;;;21.60;99.90;;;;;;4417816;32;20604;-74
2023/08/03 08:44:20;;;;;;;1.08;0.73;;;21.50;99.90;;;;;;4414180;32;20074;-75
2023/08/03 08:46:46;;;;;;;0.20;0.20;;;21.60;99.90;;;;;;4414521;32;20065;-75
2023/08/03 08:49:12;;;;;;;2.42;0.30;;;21.50;99.90;;;;;;4413973;32;20081;-75
2023/08/03 08:51:41;;;;;;;0.47;0.35;;;21.60;99.90;;;;;;4437385;32;20189;-75
2023/08/03 08:54:07;;;;;;;0.10;0.10;;;21.70;99.90;;;;;;4439493;32;20073;-76
2023/08/03 08:56:33;;;;;;;0.20;0.20;;;21.80;99.90;;;;;;4441279;32;20069;-75
2023/08/03 08:58:58;;;;;;;0.20;0.20;;;21.80;99.90;;;;;;4430222;32;20312;-74
2023/08/03 09:01:24;;;;;;;0.20;0.20;;;21.80;99.90;;;;;;4424356;32;20073;-75
2023/08/03 09:03:51;;;;;;;0.20;0.20;;;21.70;99.90;;;;;;4429369;32;20138;-75
2023/08/03 09:06:19;;;;;;;0.20;0.20;;;21.80;99.90;;;;;;4427260;32;20089;-75
2023/08/03 09:08:54;;;;;;;0.15;0.15;;;21.90;99.90;;;;;;4422070;32;20589;-75
2023/08/03 09:11:37;;;;;;;0.30;0.30;;;22.10;99.90;;;;;;4429433;32;20066;-75
2023/08/03 09:14:05;;;;;;;0.20;0.20;;;22.20;99.90;;;;;;4422548;32;20541;-75
2023/08/03 09:16:31;;;;;;;0.20;0.20;;;22.30;99.90;;;;;;4415222;32;20518;-75
2023/08/03 09:18:57;;;;;;;0.20;0.20;;;22.50;99.90;;;;;;4414933;32;20082;-75
2023/08/03 09:21:22;;;;;;;0.35;0.35;;;22.50;99.90;;;;;;4416125;32;20514;-76
2023/08/03 09:23:48;;;;;;;0.10;0.10;;;22.20;99.90;;;;;;4454865;27;20112;-74
2023/08/03 09:26:19;;;;;;;0.30;0.30;;;22.10;99.90;;;;;;4444578;32;20078;-75
2023/08/03 09:28:45;;;;;;;0.20;0.20;;;22.00;99.90;;;;;;4441133;32;20572;-74
2023/08/03 09:31:19;;;;;;;0.20;0.20;;;22.00;99.90;;;;;;4431468;32;20074;-75
2023/08/03 09:34:00;;;;;;;0.10;0.10;;;22.00;99.90;;;;;;4424640;32;20090;-75
2023/08/03 09:36:27;;;;;;;0.10;0.10;;;22.00;99.90;;;;;;4425353;32;20077;-73
2023/08/03 09:39:08;;;;;;;0.20;0.20;;;22.00;99.90;;;;;;4431770;32;20466;-74
2023/08/03 09:41:35;;;;;;;0.20;0.20;;;22.00;99.90;;;;;;4416697;32;20090;-74
2023/08/03 09:44:04;;;;;;;1.17;0.82;;;21.90;99.90;;;;;;4430213;32;20065;-75
2023/08/03 09:46:31;;;;;;;0.20;0.20;;;22.00;99.90;;;;;;4433108;32;20065;-74
2023/08/03 09:48:57;;;;;;;0.10;0.10;;;22.10;99.90;;;;;;4432550;32;20074;-74
2023/08/03 09:51:27;;;;;;;0.20;0.20;;;22.30;99.90;;;;;;4416799;32;20290;-74
2023/08/03 09:53:56;;;;;;;;;;;22.60;99.90;;;;;;4420612;32;20082;-74
2023/08/03 09:56:27;;;;;;;0.10;0.10;;;22.80;99.90;;;;;;4420745;32;20000;-74
2023/08/03 09:58:58;;;;;;;0.10;0.10;;;22.90;99.90;;;;;;4424179;32;20105;-74
2023/08/03 10:01:24;;;;;;;0.40;0.40;;;23.00;99.90;;;;;;4433837;32;20090;-74
2023/08/03 10:03:58;;;;;;;0.10;0.10;;;23.00;99.90;;;;;;4432693;32;20066;-74
2023/08/03 10:06:27;;;;;;;0.10;0.10;;;22.90;99.90;;;;;;4433478;32;20137;-75
2023/08/03 10:08:55;;;;;;;0.20;0.20;;;22.80;99.90;;;;;;4421949;32;20109;-74
2023/08/03 10:11:25;;;;;;;0.10;0.10;;;22.70;99.90;;;;;;4419129;32;20572;-74
2023/08/03 10:13:52;;;;;;;0.17;0.17;;;22.90;99.90;;;;;;4420616;32;20077;-74
2023/08/03 10:16:18;;;;;;;0.10;0.10;;;23.20;99.90;;;;;;4419610;32;20064;-75
2023/08/03 10:18:45;;;;;;;0.10;0.10;;;23.30;99.90;;;;;;4424675;32;20053;-74
2023/08/03 10:21:11;;;;;;;0.10;0.10;;;23.10;99.90;;;;;;4436198;32;20128;-75
2023/08/03 10:23:39;;;;;;;0.10;0.10;;;22.90;99.90;;;;;;4436470;32;20062;-75
2023/08/03 10:26:06;;;;;;;0.52;0.37;;;22.90;99.90;;;;;;4437345;32;20073;-74
2023/08/03 10:28:41;;;;;;;0.10;0.10;;;23.00;99.90;;;;;;4437685;32;20083;-74
2023/08/03 10:31:14;;;;;;;0.10;0.10;;;22.80;99.90;;;;;;4433903;32;20082;-74
2023/08/03 10:33:49;;;;;;;0.20;0.20;;;22.70;99.90;;;;;;4435613;32;20368;-75
2023/08/03 10:36:34;;;;;;;0.30;0.30;;;22.30;99.90;;;;;;4434216;32;20065;-74
2023/08/03 10:39:04;;;;;;;0.65;0.57;;;21.80;99.90;;;;;;4430224;32;20089;-75
2023/08/03 10:41:36;;;;;;;0.20;0.20;;;21.80;99.90;;;;;;4417646;32;20065;-74
2023/08/03 10:44:13;;;;;;;0.30;0.30;;;21.80;99.90;;;;;;4418710;32;20066;-74
2023/08/03 10:46:40;;;;;;;0.20;0.20;;;22.00;99.90;;;;;;4418184;32;20077;-75
2023/08/03 10:49:23;;;;;;;1.92;1.12;;;22.50;99.90;;;;;;4415833;32;20125;-74
2023/08/03 10:52:13;;;;;;;0.10;0.10;;;23.00;99.90;;;;;;4416505;32;20089;-74
2023/08/03 10:54:38;;;;;;;0.15;0.15;;;23.50;99.90;;;;;;4414400;32;20073;-74
2023/08/03 10:57:07;;;;;;;0.65;0.62;;;23.90;99.90;;;;;;4432054;32;20068;-74
2023/08/03 10:59:36;;;;;;;0.80;0.52;;;23.70;99.90;;;;;;4434168;32;20069;-75
2023/08/03 11:02:27;;;;;;;0.52;0.52;;;23.50;99.90;;;;;;4435792;32;20128;-74
2023/08/03 11:04:53;;;;;;;0.20;0.20;;;22.90;99.90;;;;;;4424327;32;20119;-74
2023/08/03 11:09:54;;;;;;;0.30;0.30;;;22.70;99.90;;;;;;4436232;27;20093;-74
2023/08/03 11:12:22;;;;;;;1.45;0.60;;;23.00;99.90;;;;;;4436162;32;20132;-75
2023/08/03 11:14:49;;;;;;;0.30;0.30;;;23.10;99.90;;;;;;4440060;32;20074;-75
2023/08/03 11:17:15;;;;;;;0.98;0.85;;;23.00;99.90;;;;;;4435487;32;20061;-76
2023/08/03 11:19:42;;;;;;;0.20;0.20;;;22.50;99.90;;;;;;4433591;32;20081;-76
2023/08/03 11:22:08;;;;;;;0.25;0.25;;;21.60;99.90;;;;;;4441171;32;20099;-76
2023/08/03 11:24:34;;;;;;;0.17;0.17;;;21.10;99.90;;;;;;4429480;32;20058;-76
2023/08/03 11:27:02;;;;;;;0.28;0.28;;;21.10;99.90;;;;;;4429159;32;20077;-76
2023/08/03 11:29:28;;;;;;;0.20;0.20;;;21.50;99.90;;;;;;4423608;32;20085;-76
2023/08/03 11:31:53;;;;;;;0.17;0.17;;;21.50;99.90;;;;;;4430556;32;20065;-76
2023/08/03 11:34:19;;;;;;;0.20;0.20;;;21.50;99.90;;;;;;4433585;32;20170;-75
2023/08/03 11:36:49;;;;;;;0.20;0.20;;;21.40;99.90;;;;;;4431206;32;20473;-76
2023/08/03 11:39:14;;;;;;;0.30;0.30;;;21.30;99.90;;;;;;4430454;32;20061;-75
2023/08/03 11:41:41;;;;;;;2.53;0.40;;;21.40;99.90;;;;;;4403913;32;20078;-75
2023/08/03 11:44:06;;;;;;;0.20;0.20;;;21.40;99.90;;;;;;4402624;32;20057;-75
2023/08/03 11:46:32;;;;;;;0.15;0.15;;;21.40;99.90;;;;;;4398543;32;90005;-75
2023/08/03 11:48:58;;;;;;;0.45;0.45;;;22.00;99.90;;;;;;4402482;32;20090;-75
2023/08/03 11:51:36;;;;;;;0.10;0.10;;;22.70;99.90;;;;;;4426822;32;20061;-75
2023/08/03 11:54:03;;;;;;;0.15;0.15;;;23.60;99.90;;;;;;4403299;32;20093;-75
2023/08/03 11:56:29;;;;;;;1.27;0.45;;;24.20;99.90;;;;;;4402829;32;20098;-76
2023/08/03 11:58:56;;;;;;;0.10;0.10;;;24.90;99.90;;;;;;4404609;32;20046;-76
2023/08/03 12:01:25;;;;;;;0.00;0.00;;;25.10;99.90;;;;;;4404709;32;20087;-75
2023/08/03 12:04:04;;;;;;;0.13;0.13;;;24.90;99.90;;;;;;4402784;32;20058;-75
2023/08/03 12:06:57;;;;;;;0.08;0.08;;;24.30;99.90;;;;;;4408033;32;20427;-75
2023/08/03 12:09:25;;;;;;;0.10;0.10;;;23.90;99.90;;;;;;4435395;32;20427;-74
2023/08/03 12:11:58;;;;;;;0.00;0.00;;;23.60;99.90;;;;;;4520787;26;20091;-63
2023/08/03 12:14:24;;;;;;;0.10;0.10;;;23.50;99.90;;;;;;4431753;32;20061;-63
2023/08/03 12:16:49;;;;;;;0.20;0.20;;;23.20;99.90;;;;;;4430229;32;20034;-63
2023/08/03 12:19:15;;;;;;;0.10;0.10;;;22.80;99.90;;;;;;4415267;32;20094;-63
2023/08/03 12:21:40;;;;;;;0.37;0.37;;;22.50;99.90;;;;;;4427104;32;20069;-63
2023/08/03 12:24:07;;;;;;;0.20;0.20;;;22.30;99.90;;;;;;4423984;32;20073;-63
2023/08/03 12:26:33;;;;;;;0.10;0.10;;;22.10;99.90;;;;;;4428225;32;20066;-63
2023/08/03 12:28:58;;;;;;;0.20;0.20;;;22.00;99.90;;;;;;4445591;26;20121;-74
2023/08/03 12:31:24;;;;;;;0.20;0.20;;;22.10;99.90;;;;;;4437605;32;20061;-74
2023/08/03 12:33:50;;;;;;;0.32;0.32;;;22.20;99.90;;;;;;4459791;26;20106;-63
2023/08/03 12:36:17;;;;;;;0.28;0.28;;;22.30;99.90;;;;;;4430611;32;20046;-63
2023/08/03 12:38:43;;;;;;;0.20;0.20;;;22.50;99.90;;;;;;4428851;32;20065;-63
2023/08/03 12:41:09;;;;;;;0.17;0.17;;;23.00;99.90;;;;;;4429046;32;20132;-63
2023/08/03 12:43:34;;;;;;;0.10;0.10;;;23.20;99.90;;;;;;4428779;32;20026;-62
2023/08/03 12:45:59;;;;;;;0.00;0.00;;;22.90;99.90;;;;;;4430878;32;20051;-63
2023/08/03 12:48:25;;;;;;;0.10;0.10;;;22.60;99.90;;;;;;4447583;26;20090;-75